sensor_id;sensor_type;location;lat;lon;timestamp;pressure;altitude;pressure_sealevel;temperature;humidity
13974;BME280;7060;43.770;4.008;2022-11-20T00:01:28;100905.84;;;7.92;55.64
13974;BME280;7060;43.770;4.008;2022-11-20T00:03:57;100907.66;;;7.92;55.04
13974;BME280;7060;43.770;4.008;2022-11-20T00:06:27;100897.50;;;7.86;54.13
13974;BME280;7060;43.770;4.008;2022-11-20T00:08:56;100914.06;;;7.89;54.02
13974;BME280;7060;43.770;4.008;2022-11-20T00:11:27;100917.56;;;7.90;54.70
13974;BME280;7060;43.770;4.008;2022-11-20T00:13:58;100918.78;;;7.86;55.21
13974;BME280;7060;43.770;4.008;2022-11-20T00:16:29;100915.41;;;7.83;55.21
13974;BME280;7060;43.770;4.008;2022-11-20T00:18:59;100917.34;;;7.81;55.12
13974;BME280;7060;43.770;4.008;2022-11-20T00:21:28;100921.81;;;7.81;54.74
13974;BME280;7060;43.770;4.008;2022-11-20T00:23:57;100916.16;;;7.74;55.34
13974;BME280;7060;43.770;4.008;2022-11-20T00:26:28;100920.38;;;7.77;55.65
13974;BME280;7060;43.770;4.008;2022-11-20T00:28:58;100911.31;;;7.68;56.50
13974;BME280;7060;43.770;4.008;2022-11-20T00:31:27;100925.59;;;7.67;56.98
13974;BME280;7060;43.770;4.008;2022-11-20T00:33:55;100915.81;;;7.68;57.95
13974;BME280;7060;43.770;4.008;2022-11-20T00:36:25;100888.75;;;7.40;57.53
13974;BME280;7060;43.770;4.008;2022-11-20T00:38:55;100912.66;;;7.52;57.85
13974;BME280;7060;43.770;4.008;2022-11-20T00:41:26;100882.09;;;7.35;57.95
13974;BME280;7060;43.770;4.008;2022-11-20T00:43:55;100913.03;;;7.47;56.30
13974;BME280;7060;43.770;4.008;2022-11-20T00:46:25;100917.97;;;7.52;56.15
13974;BME280;7060;43.770;4.008;2022-11-20T00:48:54;100910.72;;;7.54;55.29
13974;BME280;7060;43.770;4.008;2022-11-20T00:51:24;100905.16;;;7.57;54.85
13974;BME280;7060;43.770;4.008;2022-11-20T00:53:55;100907.34;;;7.63;53.86
13974;BME280;7060;43.770;4.008;2022-11-20T00:56:23;100905.03;;;7.58;53.35
13974;BME280;7060;43.770;4.008;2022-11-20T00:58:53;100914.59;;;7.72;52.71
13974;BME280;7060;43.770;4.008;2022-11-20T01:01:23;100924.00;;;7.76;52.48
13974;BME280;7060;43.770;4.008;2022-11-20T01:03:54;100920.97;;;7.80;52.84
13974;BME280;7060;43.770;4.008;2022-11-20T01:06:24;100923.63;;;7.80;51.89
13974;BME280;7060;43.770;4.008;2022-11-20T01:08:54;100931.97;;;7.87;51.31
13974;BME280;7060;43.770;4.008;2022-11-20T01:11:24;100920.84;;;7.93;50.57
13974;BME280;7060;43.770;4.008;2022-11-20T01:13:55;100921.19;;;8.00;51.10
13974;BME280;7060;43.770;4.008;2022-11-20T01:16:26;100919.81;;;8.05;49.95
13974;BME280;7060;43.770;4.008;2022-11-20T01:18:56;100889.75;;;7.94;50.57
13974;BME280;7060;43.770;4.008;2022-11-20T01:21:27;100906.38;;;8.07;50.54
13974;BME280;7060;43.770;4.008;2022-11-20T01:23:56;100908.69;;;8.11;50.65
13974;BME280;7060;43.770;4.008;2022-11-20T01:26:26;100871.34;;;7.91;50.75
13974;BME280;7060;43.770;4.008;2022-11-20T01:28:56;100885.03;;;7.97;50.75
13974;BME280;7060;43.770;4.008;2022-11-20T01:31:26;100908.31;;;8.16;49.90
13974;BME280;7060;43.770;4.008;2022-11-20T01:33:57;100900.19;;;8.18;50.09
13974;BME280;7060;43.770;4.008;2022-11-20T01:36:26;100905.78;;;8.14;51.06
13974;BME280;7060;43.770;4.008;2022-11-20T01:38:56;100877.41;;;7.93;49.55
13974;BME280;7060;43.770;4.008;2022-11-20T01:41:27;100917.16;;;8.16;49.82
13974;BME280;7060;43.770;4.008;2022-11-20T01:44:17;100922.47;;;8.16;49.35
13974;BME280;7060;43.770;4.008;2022-11-20T01:46:52;100923.31;;;8.17;49.49
13974;BME280;7060;43.770;4.008;2022-11-20T01:49:26;100931.44;;;8.15;49.70
13974;BME280;7060;43.770;4.008;2022-11-20T01:51:57;100899.19;;;7.98;50.35
13974;BME280;7060;43.770;4.008;2022-11-20T01:54:30;100929.75;;;8.14;49.84
13974;BME280;7060;43.770;4.008;2022-11-20T01:57:00;100934.34;;;8.12;49.53
13974;BME280;7060;43.770;4.008;2022-11-20T01:59:31;100934.34;;;8.12;49.82
13974;BME280;7060;43.770;4.008;2022-11-20T02:01:59;100934.34;;;8.12;49.54
13974;BME280;7060;43.770;4.008;2022-11-20T02:04:27;100932.78;;;8.10;49.54
13974;BME280;7060;43.770;4.008;2022-11-20T02:06:59;100937.25;;;8.09;50.07
13974;BME280;7060;43.770;4.008;2022-11-20T02:09:28;100938.22;;;8.08;49.81
13974;BME280;7060;43.770;4.008;2022-11-20T02:11:57;100938.22;;;8.08;50.03
13974;BME280;7060;43.770;4.008;2022-11-20T02:14:26;100931.44;;;8.04;50.09
13974;BME280;7060;43.770;4.008;2022-11-20T02:16:56;100935.81;;;8.05;50.17
13974;BME280;7060;43.770;4.008;2022-11-20T02:19:26;100941.13;;;8.05;50.00
13974;BME280;7060;43.770;4.008;2022-11-20T02:22:00;100941.41;;;8.02;50.23
13974;BME280;7060;43.770;4.008;2022-11-20T02:24:31;100937.41;;;7.97;50.11
13974;BME280;7060;43.770;4.008;2022-11-20T02:27:02;100934.88;;;7.95;50.96
13974;BME280;7060;43.770;4.008;2022-11-20T02:29:36;100932.22;;;7.95;51.17
13974;BME280;7060;43.770;4.008;2022-11-20T02:32:06;100938.75;;;7.91;50.86
13974;BME280;7060;43.770;4.008;2022-11-20T02:34:34;100935.50;;;7.88;50.98
13974;BME280;7060;43.770;4.008;2022-11-20T02:37:02;100931.13;;;7.87;51.03
13974;BME280;7060;43.770;4.008;2022-11-20T02:39:32;100931.97;;;7.87;50.93
13974;BME280;7060;43.770;4.008;2022-11-20T02:42:01;100933.19;;;7.83;51.87
13974;BME280;7060;43.770;4.008;2022-11-20T02:44:29;100930.66;;;7.81;50.97
13974;BME280;7060;43.770;4.008;2022-11-20T02:46:58;100933.44;;;7.80;51.77
13974;BME280;7060;43.770;4.008;2022-11-20T02:49:26;100936.00;;;7.70;52.00
13974;BME280;7060;43.770;4.008;2022-11-20T02:51:55;100942.66;;;7.65;52.28
13974;BME280;7060;43.770;4.008;2022-11-20T02:54:23;100940.47;;;7.59;52.04
13974;BME280;7060;43.770;4.008;2022-11-20T02:56:54;100938.91;;;7.56;53.00
13974;BME280;7060;43.770;4.008;2022-11-20T02:59:22;100934.06;;;7.50;52.97
13974;BME280;7060;43.770;4.008;2022-11-20T03:01:50;100939.66;;;7.47;53.16
13974;BME280;7060;43.770;4.008;2022-11-20T03:04:19;100936.84;;;7.48;53.36
13974;BME280;7060;43.770;4.008;2022-11-20T03:06:47;100939.38;;;7.50;52.57
13974;BME280;7060;43.770;4.008;2022-11-20T03:09:15;100936.59;;;7.52;52.47
13974;BME280;7060;43.770;4.008;2022-11-20T03:11:44;100936.59;;;7.52;52.23
13974;BME280;7060;43.770;4.008;2022-11-20T03:14:14;100944.59;;;7.52;51.62
13974;BME280;7060;43.770;4.008;2022-11-20T03:16:42;100945.31;;;7.54;51.46
13974;BME280;7060;43.770;4.008;2022-11-20T03:19:11;100948.69;;;7.56;51.69
13974;BME280;7060;43.770;4.008;2022-11-20T03:21:39;100921.88;;;7.36;52.31
13974;BME280;7060;43.770;4.008;2022-11-20T03:24:08;100947.00;;;7.55;51.88
13974;BME280;7060;43.770;4.008;2022-11-20T03:26:36;100955.59;;;7.58;51.91
13974;BME280;7060;43.770;4.008;2022-11-20T03:29:05;100952.81;;;7.60;51.55
13974;BME280;7060;43.770;4.008;2022-11-20T03:31:37;100958.13;;;7.60;51.24
13974;BME280;7060;43.770;4.008;2022-11-20T03:34:08;100963.22;;;7.63;51.91
13974;BME280;7060;43.770;4.008;2022-11-20T03:36:38;100962.00;;;7.67;51.23
13974;BME280;7060;43.770;4.008;2022-11-20T03:39:07;100961.88;;;7.68;51.51
13974;BME280;7060;43.770;4.008;2022-11-20T03:41:37;100961.88;;;7.57;51.67
13974;BME280;7060;43.770;4.008;2022-11-20T03:44:07;100977.75;;;7.70;51.01
13974;BME280;7060;43.770;4.008;2022-11-20T03:46:37;100951.25;;;7.57;50.75
13974;BME280;7060;43.770;4.008;2022-11-20T03:49:06;100968.19;;;7.67;50.50
13974;BME280;7060;43.770;4.008;2022-11-20T03:51:35;100974.13;;;7.71;50.66
13974;BME280;7060;43.770;4.008;2022-11-20T03:54:06;100984.03;;;7.69;50.82
13974;BME280;7060;43.770;4.008;2022-11-20T03:56:37;100973.13;;;7.61;51.23
13974;BME280;7060;43.770;4.008;2022-11-20T03:59:06;100977.50;;;7.73;50.91
13974;BME280;7060;43.770;4.008;2022-11-20T04:01:36;100978.34;;;7.73;50.43
13974;BME280;7060;43.770;4.008;2022-11-20T04:04:05;100986.22;;;7.75;50.78
13974;BME280;7060;43.770;4.008;2022-11-20T04:06:35;100980.88;;;7.75;50.15
13974;BME280;7060;43.770;4.008;2022-11-20T04:09:04;100986.22;;;7.75;51.06
13974;BME280;7060;43.770;4.008;2022-11-20T04:11:34;100984.75;;;7.71;50.81
13974;BME280;7060;43.770;4.008;2022-11-20T04:14:04;100983.06;;;7.70;51.25
13974;BME280;7060;43.770;4.008;2022-11-20T04:16:35;100985.72;;;7.70;50.64
13974;BME280;7060;43.770;4.008;2022-11-20T04:19:06;100992.63;;;7.72;51.30
13974;BME280;7060;43.770;4.008;2022-11-20T04:21:34;100994.31;;;7.73;51.55
13974;BME280;7060;43.770;4.008;2022-11-20T04:24:03;100991.78;;;7.72;50.41
13974;BME280;7060;43.770;4.008;2022-11-20T04:26:32;100995.16;;;7.74;50.99
13974;BME280;7060;43.770;4.008;2022-11-20T04:29:01;100984.38;;;7.75;50.91
13974;BME280;7060;43.770;4.008;2022-11-20T04:31:31;100986.91;;;7.77;50.94
13974;BME280;7060;43.770;4.008;2022-11-20T04:34:00;101007.84;;;7.70;50.69
13974;BME280;7060;43.770;4.008;2022-11-20T04:36:31;100990.44;;;7.66;50.95
13974;BME280;7060;43.770;4.008;2022-11-20T04:39:02;100986.94;;;7.66;50.23
13974;BME280;7060;43.770;4.008;2022-11-20T04:41:33;100972.41;;;7.59;50.98
13974;BME280;7060;43.770;4.008;2022-11-20T04:44:03;100982.56;;;7.65;51.47
13974;BME280;7060;43.770;4.008;2022-11-20T04:46:34;100977.13;;;7.66;51.63
13974;BME280;7060;43.770;4.008;2022-11-20T04:49:03;100976.41;;;7.64;50.94
13974;BME280;7060;43.770;4.008;2022-11-20T04:51:33;100985.13;;;7.66;51.36
13974;BME280;7060;43.770;4.008;2022-11-20T04:54:02;100996.59;;;7.67;51.85
13974;BME280;7060;43.770;4.008;2022-11-20T04:56:30;100993.94;;;7.67;51.39
13974;BME280;7060;43.770;4.008;2022-11-20T04:59:00;100998.19;;;7.69;51.49
13974;BME280;7060;43.770;4.008;2022-11-20T05:01:30;101007.84;;;7.70;51.16
13974;BME280;7060;43.770;4.008;2022-11-20T05:04:01;100997.06;;;7.61;51.47
13974;BME280;7060;43.770;4.008;2022-11-20T05:06:29;101005.56;;;7.66;51.93
13974;BME280;7060;43.770;4.008;2022-11-20T05:08:59;101012.56;;;7.67;50.79
13974;BME280;7060;43.770;4.008;2022-11-20T05:11:27;101013.19;;;7.70;50.97
13974;BME280;7060;43.770;4.008;2022-11-20T05:13:58;101014.75;;;7.73;50.67
13974;BME280;7060;43.770;4.008;2022-11-20T05:16:27;101012.22;;;7.71;51.63
13974;BME280;7060;43.770;4.008;2022-11-20T05:18:55;101024.69;;;7.71;51.20
13974;BME280;7060;43.770;4.008;2022-11-20T05:21:23;101017.66;;;7.70;50.92
13974;BME280;7060;43.770;4.008;2022-11-20T05:23:51;101006.53;;;7.65;50.30
13974;BME280;7060;43.770;4.008;2022-11-20T05:26:22;101009.78;;;7.68;50.38
13974;BME280;7060;43.770;4.008;2022-11-20T05:28:50;101020.31;;;7.70;50.18
13974;BME280;7060;43.770;4.008;2022-11-20T05:31:21;101016.69;;;7.71;50.25
13974;BME280;7060;43.770;4.008;2022-11-20T05:33:54;101004.13;;;7.73;49.91
13974;BME280;7060;43.770;4.008;2022-11-20T05:36:23;101015.72;;;7.72;50.56
13974;BME280;7060;43.770;4.008;2022-11-20T05:38:51;101007.00;;;7.70;50.86
13974;BME280;7060;43.770;4.008;2022-11-20T05:41:28;101011.84;;;7.65;50.66
13974;BME280;7060;43.770;4.008;2022-11-20T05:43:57;101012.81;;;7.64;50.22
13974;BME280;7060;43.770;4.008;2022-11-20T05:46:26;101013.03;;;7.61;51.09
13974;BME280;7060;43.770;4.008;2022-11-20T05:48:56;101012.44;;;7.57;50.83
13974;BME280;7060;43.770;4.008;2022-11-20T05:51:25;101005.09;;;8.37;49.25
13974;BME280;7060;43.770;4.008;2022-11-20T05:53:56;101015.31;;;8.10;49.55
13974;BME280;7060;43.770;4.008;2022-11-20T05:56:24;101019.34;;;7.93;50.12
13974;BME280;7060;43.770;4.008;2022-11-20T05:58:54;101015.47;;;7.86;49.80
13974;BME280;7060;43.770;4.008;2022-11-20T06:01:24;101024.16;;;7.77;50.25
13974;BME280;7060;43.770;4.008;2022-11-20T06:03:53;101027.34;;;7.71;51.41
13974;BME280;7060;43.770;4.008;2022-11-20T06:06:22;101027.94;;;7.63;51.14
13974;BME280;7060;43.770;4.008;2022-11-20T06:08:51;101029.94;;;7.48;50.90
13974;BME280;7060;43.770;4.008;2022-11-20T06:11:20;101020.03;;;7.39;51.44
13974;BME280;7060;43.770;4.008;2022-11-20T06:13:48;101029.09;;;7.37;51.37
13974;BME280;7060;43.770;4.008;2022-11-20T06:16:19;101020.16;;;7.38;50.94
13974;BME280;7060;43.770;4.008;2022-11-20T06:18:48;101041.44;;;7.38;51.50
13974;BME280;7060;43.770;4.008;2022-11-20T06:21:18;101033.56;;;7.36;50.86
13974;BME280;7060;43.770;4.008;2022-11-20T06:23:48;101033.03;;;7.31;51.33
13974;BME280;7060;43.770;4.008;2022-11-20T06:26:19;101028.91;;;7.27;52.11
13974;BME280;7060;43.770;4.008;2022-11-20T06:28:49;101046.81;;;7.25;51.26
13974;BME280;7060;43.770;4.008;2022-11-20T06:31:21;101018.00;;;7.08;52.28
13974;BME280;7060;43.770;4.008;2022-11-20T06:33:50;101048.13;;;7.20;53.21
13974;BME280;7060;43.770;4.008;2022-11-20T06:36:21;101051.66;;;7.20;51.95
13974;BME280;7060;43.770;4.008;2022-11-20T06:38:50;101055.38;;;7.18;51.94
13974;BME280;7060;43.770;4.008;2022-11-20T06:41:20;101053.78;;;7.15;51.54
13974;BME280;7060;43.770;4.008;2022-11-20T06:43:49;101039.09;;;6.98;52.09
13974;BME280;7060;43.770;4.008;2022-11-20T06:46:19;101045.09;;;7.13;51.82
13974;BME280;7060;43.770;4.008;2022-11-20T06:48:48;101051.38;;;7.12;51.64
13974;BME280;7060;43.770;4.008;2022-11-20T06:51:17;101045.09;;;7.13;51.31
13974;BME280;7060;43.770;4.008;2022-11-20T06:53:46;101049.22;;;7.17;52.27
13974;BME280;7060;43.770;4.008;2022-11-20T06:56:17;101055.50;;;7.16;52.95
13974;BME280;7060;43.770;4.008;2022-11-20T06:58:45;101057.66;;;7.11;53.32
13974;BME280;7060;43.770;4.008;2022-11-20T07:01:14;101053.28;;;7.10;54.11
13974;BME280;7060;43.770;4.008;2022-11-20T07:03:45;101054.88;;;7.12;52.56
13974;BME280;7060;43.770;4.008;2022-11-20T07:06:19;101056.69;;;7.12;53.02
13974;BME280;7060;43.770;4.008;2022-11-20T07:08:50;101063.34;;;7.18;52.66
13974;BME280;7060;43.770;4.008;2022-11-20T07:11:19;101080.03;;;7.20;51.99
13974;BME280;7060;43.770;4.008;2022-11-20T07:13:47;101062.97;;;7.22;52.69
13974;BME280;7060;43.770;4.008;2022-11-20T07:16:16;101069.16;;;7.23;52.72
13974;BME280;7060;43.770;4.008;2022-11-20T07:18:46;101073.63;;;7.22;52.23
13974;BME280;7060;43.770;4.008;2022-11-20T07:21:17;101059.63;;;7.20;52.33
13974;BME280;7060;43.770;4.008;2022-11-20T07:23:45;101078.59;;;7.27;52.18
13974;BME280;7060;43.770;4.008;2022-11-20T07:26:14;101079.09;;;7.32;52.06
13974;BME280;7060;43.770;4.008;2022-11-20T07:28:44;101087.50;;;7.38;51.80
13974;BME280;7060;43.770;4.008;2022-11-20T07:31:12;101088.75;;;7.45;50.96
13974;BME280;7060;43.770;4.008;2022-11-20T07:33:46;101091.97;;;7.49;50.70
13974;BME280;7060;43.770;4.008;2022-11-20T07:36:15;101097.91;;;7.53;50.55
13974;BME280;7060;43.770;4.008;2022-11-20T07:38:43;101101.69;;;7.61;50.26
13974;BME280;7060;43.770;4.008;2022-11-20T07:41:12;101101.34;;;7.66;50.21
13974;BME280;7060;43.770;4.008;2022-11-20T07:43:43;101099.91;;;7.84;50.72
13974;BME280;7060;43.770;4.008;2022-11-20T07:46:12;101092.19;;;8.14;48.91
13974;BME280;7060;43.770;4.008;2022-11-20T07:48:40;101096.28;;;8.52;49.52
13974;BME280;7060;43.770;4.008;2022-11-20T07:51:10;101096.78;;;8.89;47.96
13974;BME280;7060;43.770;4.008;2022-11-20T07:53:38;101106.72;;;9.30;46.56
13974;BME280;7060;43.770;4.008;2022-11-20T07:56:07;101075.22;;;9.45;46.13
13974;BME280;7060;43.770;4.008;2022-11-20T07:58:35;101112.75;;;9.95;45.02
13974;BME280;7060;43.770;4.008;2022-11-20T08:01:04;101122.56;;;10.15;44.55
13974;BME280;7060;43.770;4.008;2022-11-20T08:03:33;101117.13;;;10.26;44.10
13974;BME280;7060;43.770;4.008;2022-11-20T08:06:01;101127.84;;;10.36;43.84
13974;BME280;7060;43.770;4.008;2022-11-20T08:08:31;101137.03;;;10.43;44.44
13974;BME280;7060;43.770;4.008;2022-11-20T08:11:02;101142.25;;;10.54;43.47
13974;BME280;7060;43.770;4.008;2022-11-20T08:13:48;101142.03;;;10.67;42.64
13974;BME280;7060;43.770;4.008;2022-11-20T08:16:36;101137.19;;;10.91;43.20
13974;BME280;7060;43.770;4.008;2022-11-20T08:19:04;101139.91;;;11.20;43.04
13974;BME280;7060;43.770;4.008;2022-11-20T08:21:33;101147.38;;;11.45;43.42
13974;BME280;7060;43.770;4.008;2022-11-20T08:24:06;101151.28;;;11.61;42.75
13974;BME280;7060;43.770;4.008;2022-11-20T08:26:36;101140.59;;;11.70;42.19
13974;BME280;7060;43.770;4.008;2022-11-20T08:29:05;101138.47;;;11.74;42.49
13974;BME280;7060;43.770;4.008;2022-11-20T08:31:34;101139.03;;;11.77;41.83
13974;BME280;7060;43.770;4.008;2022-11-20T08:34:02;101132.81;;;11.77;41.32
13974;BME280;7060;43.770;4.008;2022-11-20T08:36:35;101131.97;;;11.76;41.35
13974;BME280;7060;43.770;4.008;2022-11-20T08:39:05;101144.94;;;11.81;41.39
13974;BME280;7060;43.770;4.008;2022-11-20T08:41:34;101144.66;;;11.84;41.33
13974;BME280;7060;43.770;4.008;2022-11-20T08:44:05;101145.50;;;11.84;40.47
13974;BME280;7060;43.770;4.008;2022-11-20T08:46:36;101149.19;;;11.83;40.59
13974;BME280;7060;43.770;4.008;2022-11-20T08:49:05;101148.34;;;11.83;41.22
13974;BME280;7060;43.770;4.008;2022-11-20T08:51:35;101145.22;;;11.78;40.94
13974;BME280;7060;43.770;4.008;2022-11-20T08:54:05;101140.88;;;11.77;40.98
13974;BME280;7060;43.770;4.008;2022-11-20T08:56:34;101128.19;;;11.60;41.21
13974;BME280;7060;43.770;4.008;2022-11-20T08:59:03;101148.75;;;11.59;40.90
13974;BME280;7060;43.770;4.008;2022-11-20T09:01:51;101151.47;;;11.49;40.79
13974;BME280;7060;43.770;4.008;2022-11-20T09:04:20;101146.09;;;11.49;40.88
13974;BME280;7060;43.770;4.008;2022-11-20T09:06:50;101145.69;;;11.44;41.91
13974;BME280;7060;43.770;4.008;2022-11-20T09:09:20;101146.53;;;11.45;41.55
13974;BME280;7060;43.770;4.008;2022-11-20T09:11:49;101153.28;;;11.39;41.47
13974;BME280;7060;43.770;4.008;2022-11-20T09:14:17;101147.09;;;11.39;41.48
13974;BME280;7060;43.770;4.008;2022-11-20T09:16:46;101150.59;;;11.39;41.58
13974;BME280;7060;43.770;4.008;2022-11-20T09:19:14;101150.59;;;11.39;41.12
13974;BME280;7060;43.770;4.008;2022-11-20T09:22:03;101142.72;;;11.38;41.17
13974;BME280;7060;43.770;4.008;2022-11-20T09:24:32;101137.94;;;11.41;41.61
13974;BME280;7060;43.770;4.008;2022-11-20T09:27:03;101149.19;;;11.45;41.76
13974;BME280;7060;43.770;4.008;2022-11-20T09:29:31;101145.69;;;11.44;41.89
13974;BME280;7060;43.770;4.008;2022-11-20T09:32:00;101143.00;;;11.44;41.24
13974;BME280;7060;43.770;4.008;2022-11-20T09:34:29;101148.22;;;11.46;40.85
13974;BME280;7060;43.770;4.008;2022-11-20T09:36:57;101154.16;;;11.49;40.49
13974;BME280;7060;43.770;4.008;2022-11-20T09:39:33;101153.28;;;11.49;40.35
13974;BME280;7060;43.770;4.008;2022-11-20T09:42:20;101158.22;;;11.53;40.74
13974;BME280;7060;43.770;4.008;2022-11-20T09:45:02;101155.69;;;11.52;40.64
13974;BME280;7060;43.770;4.008;2022-11-20T09:47:44;101163.56;;;11.44;39.44
13974;BME280;7060;43.770;4.008;2022-11-20T09:50:25;101167.38;;;11.51;39.79
13974;BME280;7060;43.770;4.008;2022-11-20T09:53:06;101170.78;;;11.53;39.09
13974;BME280;7060;43.770;4.008;2022-11-20T09:55:38;101170.06;;;11.51;37.65
13974;BME280;7060;43.770;4.008;2022-11-20T09:58:10;101160.59;;;11.37;36.94
13974;BME280;7060;43.770;4.008;2022-11-20T10:00:42;101193.19;;;11.52;36.78
13974;BME280;7060;43.770;4.008;2022-11-20T10:03:13;101190.63;;;11.50;36.51
13974;BME280;7060;43.770;4.008;2022-11-20T10:05:44;101169.22;;;11.41;36.98
13974;BME280;7060;43.770;4.008;2022-11-20T10:08:17;101180.06;;;11.59;37.08
13974;BME280;7060;43.770;4.008;2022-11-20T10:10:52;101191.47;;;11.61;37.01
13974;BME280;7060;43.770;4.008;2022-11-20T10:13:30;101189.50;;;11.63;37.35
13974;BME280;7060;43.770;4.008;2022-11-20T10:16:10;101181.88;;;11.68;37.79
13974;BME280;7060;43.770;4.008;2022-11-20T10:18:54;101182.72;;;11.68;37.36
13974;BME280;7060;43.770;4.008;2022-11-20T10:21:30;101182.31;;;11.73;36.94
13974;BME280;7060;43.770;4.008;2022-11-20T10:24:24;101183.72;;;11.77;37.17
13974;BME280;7060;43.770;4.008;2022-11-20T10:27:02;101182.59;;;11.79;37.29
13974;BME280;7060;43.770;4.008;2022-11-20T10:29:34;101188.66;;;11.81;36.60
13974;BME280;7060;43.770;4.008;2022-11-20T10:32:08;101174.97;;;11.84;35.63
13974;BME280;7060;43.770;4.008;2022-11-20T10:34:44;101176.09;;;11.82;35.31
13974;BME280;7060;43.770;4.008;2022-11-20T10:37:18;101162.56;;;11.83;35.67
13974;BME280;7060;43.770;4.008;2022-11-20T10:39:51;101168.31;;;11.88;36.23
13974;BME280;7060;43.770;4.008;2022-11-20T10:42:28;101162.38;;;11.95;36.87
13974;BME280;7060;43.770;4.008;2022-11-20T10:45:02;101159.13;;;12.01;37.06
13974;BME280;7060;43.770;4.008;2022-11-20T10:47:33;101127.16;;;11.89;35.71
13974;BME280;7060;43.770;4.008;2022-11-20T10:50:05;101137.97;;;12.07;34.93
13974;BME280;7060;43.770;4.008;2022-11-20T10:52:41;101141.50;;;12.08;36.29
13974;BME280;7060;43.770;4.008;2022-11-20T10:55:26;101142.34;;;12.08;35.30
13974;BME280;7060;43.770;4.008;2022-11-20T10:58:03;101085.59;;;11.85;36.65
13974;BME280;7060;43.770;4.008;2022-11-20T11:00:34;101128.22;;;12.16;36.21
13974;BME280;7060;43.770;4.008;2022-11-20T11:03:02;101077.75;;;12.02;35.78
13974;BME280;7060;43.770;4.008;2022-11-20T11:05:37;101114.94;;;12.24;34.13
13974;BME280;7060;43.770;4.008;2022-11-20T11:08:13;101116.63;;;12.25;34.87
13974;BME280;7060;43.770;4.008;2022-11-20T11:10:46;101122.69;;;12.27;35.72
13974;BME280;7060;43.770;4.008;2022-11-20T11:13:23;101121.25;;;12.33;36.44
13974;BME280;7060;43.770;4.008;2022-11-20T11:15:52;101103.91;;;12.37;36.02
13974;BME280;7060;43.770;4.008;2022-11-20T11:18:25;100964.41;;;11.64;34.65
13974;BME280;7060;43.770;4.008;2022-11-20T11:20:54;101088.50;;;12.39;34.69
13974;BME280;7060;43.770;4.008;2022-11-20T11:23:34;101090.19;;;12.40;34.81
13974;BME280;7060;43.770;4.008;2022-11-20T11:26:06;101062.47;;;12.21;34.83
13974;BME280;7060;43.770;4.008;2022-11-20T11:28:36;101088.19;;;12.42;35.35
13974;BME280;7060;43.770;4.008;2022-11-20T11:31:04;101082.81;;;12.42;35.36
13974;BME280;7060;43.770;4.008;2022-11-20T11:33:33;101062.06;;;12.44;35.65
13974;BME280;7060;43.770;4.008;2022-11-20T11:36:03;101059.78;;;12.49;35.34
13974;BME280;7060;43.770;4.008;2022-11-20T11:38:35;101046.22;;;12.50;35.99
13974;BME280;7060;43.770;4.008;2022-11-20T11:41:06;101051.28;;;12.53;36.52
13974;BME280;7060;43.770;4.008;2022-11-20T11:43:37;101039.41;;;12.56;36.79
13974;BME280;7060;43.770;4.008;2022-11-20T11:46:32;101004.06;;;12.43;35.66
13974;BME280;7060;43.770;4.008;2022-11-20T11:49:10;101017.25;;;12.54;35.24
13974;BME280;7060;43.770;4.008;2022-11-20T11:52:03;101028.69;;;12.56;34.54
13974;BME280;7060;43.770;4.008;2022-11-20T11:54:38;101023.63;;;12.53;34.55
13974;BME280;7060;43.770;4.008;2022-11-20T11:57:12;101004.00;;;12.52;34.87
13974;BME280;7060;43.770;4.008;2022-11-20T11:59:53;101020.63;;;12.56;35.62
13974;BME280;7060;43.770;4.008;2022-11-20T12:02:30;101021.47;;;12.57;36.52
13974;BME280;7060;43.770;4.008;2022-11-20T12:05:09;101026.69;;;12.58;36.56
13974;BME280;7060;43.770;4.008;2022-11-20T12:07:42;101014.59;;;12.54;35.68
13974;BME280;7060;43.770;4.008;2022-11-20T12:10:21;101017.50;;;12.61;36.85
13974;BME280;7060;43.770;4.008;2022-11-20T12:12:55;101023.72;;;12.61;36.93
13974;BME280;7060;43.770;4.008;2022-11-20T12:15:33;101019.03;;;12.63;36.99
13974;BME280;7060;43.770;4.008;2022-11-20T12:18:04;101019.88;;;12.64;37.36
13974;BME280;7060;43.770;4.008;2022-11-20T12:20:43;101013.38;;;12.66;36.91
13974;BME280;7060;43.770;4.008;2022-11-20T12:23:18;101011.34;;;12.68;36.37
13974;BME280;7060;43.770;4.008;2022-11-20T12:25:54;101021.94;;;12.70;36.07
13974;BME280;7060;43.770;4.008;2022-11-20T12:28:37;101020.25;;;12.69;35.96
13974;BME280;7060;43.770;4.008;2022-11-20T12:31:43;101014.59;;;12.72;37.02
13974;BME280;7060;43.770;4.008;2022-11-20T12:34:35;101015.28;;;12.74;36.67
13974;BME280;7060;43.770;4.008;2022-11-20T12:37:17;101012.75;;;12.72;36.95
13974;BME280;7060;43.770;4.008;2022-11-20T12:39:49;101014.13;;;12.76;36.65
13974;BME280;7060;43.770;4.008;2022-11-20T12:42:36;101019.19;;;12.79;36.77
13974;BME280;7060;43.770;4.008;2022-11-20T12:45:43;101015.81;;;12.77;37.27
13974;BME280;7060;43.770;4.008;2022-11-20T12:48:28;101011.28;;;12.78;36.77
13974;BME280;7060;43.770;4.008;2022-11-20T12:51:15;101006.78;;;12.78;36.24
13974;BME280;7060;43.770;4.008;2022-11-20T12:53:55;100997.56;;;12.81;36.45
13974;BME280;7060;43.770;4.008;2022-11-20T12:56:35;100992.91;;;12.83;36.39
13974;BME280;7060;43.770;4.008;2022-11-20T12:59:23;100991.22;;;12.82;36.55
13974;BME280;7060;43.770;4.008;2022-11-20T13:02:01;100987.38;;;12.84;36.35
13974;BME280;7060;43.770;4.008;2022-11-20T13:04:52;100975.66;;;12.85;36.82
13974;BME280;7060;43.770;4.008;2022-11-20T13:07:27;100976.66;;;12.84;36.76
13974;BME280;7060;43.770;4.008;2022-11-20T13:09:56;100969.13;;;12.88;37.43
13974;BME280;7060;43.770;4.008;2022-11-20T13:12:31;100975.03;;;12.92;37.06
13974;BME280;7060;43.770;4.008;2022-11-20T13:15:05;100986.63;;;12.92;37.04
13974;BME280;7060;43.770;4.008;2022-11-20T13:17:41;100944.00;;;12.71;37.10
13974;BME280;7060;43.770;4.008;2022-11-20T13:20:16;100968.84;;;12.91;36.88
13974;BME280;7060;43.770;4.008;2022-11-20T13:22:46;100970.66;;;12.91;36.79
13974;BME280;7060;43.770;4.008;2022-11-20T13:25:27;100942.00;;;12.73;36.92
13974;BME280;7060;43.770;4.008;2022-11-20T13:27:57;100970.81;;;12.89;37.89
13974;BME280;7060;43.770;4.008;2022-11-20T13:30:27;100962.47;;;12.92;37.99
13974;BME280;7060;43.770;4.008;2022-11-20T13:32:57;100953.94;;;12.97;38.56